sensor_id;sensor_type;location;lat;lon;timestamp;pressure;altitude;pressure_sealevel;temperature;humidity
12360;BME280;6244;51.460;7.090;2023-05-12T00:04:41;100435.94;;;13.32;92.45
12360;BME280;6244;51.460;7.090;2023-05-12T00:09:37;100430.47;;;13.35;92.90
12360;BME280;6244;51.460;7.090;2023-05-12T00:14:35;100433.34;;;13.44;92.83
12360;BME280;6244;51.460;7.090;2023-05-12T00:19:33;100423.53;;;13.46;92.43
12360;BME280;6244;51.460;7.090;2023-05-12T00:24:30;100417.41;;;13.46;92.17
12360;BME280;6244;51.460;7.090;2023-05-12T00:29:27;100416.81;;;13.55;92.36
12360;BME280;6244;51.460;7.090;2023-05-12T00:34:23;100414.28;;;13.54;92.30
12360;BME280;6244;51.460;7.090;2023-05-12T00:39:22;100413.63;;;13.50;92.28
12360;BME280;6244;51.460;7.090;2023-05-12T00:44:18;100415.41;;;13.49;92.19
12360;BME280;6244;51.460;7.090;2023-05-12T00:49:15;100413.19;;;13.43;92.20
12360;BME280;6244;51.460;7.090;2023-05-12T00:54:11;100408.16;;;13.53;92.49
12360;BME280;6244;51.460;7.090;2023-05-12T00:59:09;100411.94;;;13.49;92.41
12360;BME280;6244;51.460;7.090;2023-05-12T01:04:06;100404.34;;;13.44;92.41
12360;BME280;6244;51.460;7.090;2023-05-12T01:09:02;100415.72;;;13.45;92.53
12360;BME280;6244;51.460;7.090;2023-05-12T01:13:59;100417.72;;;13.41;92.53
12360;BME280;6244;51.460;7.090;2023-05-12T01:18:57;100408.88;;;13.42;92.49
12360;BME280;6244;51.460;7.090;2023-05-12T01:23:57;100407.69;;;13.34;92.50
12360;BME280;6244;51.460;7.090;2023-05-12T01:28:55;100407.69;;;13.34;92.88
12360;BME280;6244;51.460;7.090;2023-05-12T01:33:52;100421.28;;;13.28;92.64
12360;BME280;6244;51.460;7.090;2023-05-12T01:38:49;100418.88;;;13.10;92.74
12360;BME280;6244;51.460;7.090;2023-05-12T01:43:46;100425.53;;;13.16;92.93
12360;BME280;6244;51.460;7.090;2023-05-12T01:48:43;100434.16;;;13.32;92.81
12360;BME280;6244;51.460;7.090;2023-05-12T01:53:40;100446.38;;;13.33;92.30
12360;BME280;6244;51.460;7.090;2023-05-12T01:58:37;100440.06;;;13.36;92.04
12360;BME280;6244;51.460;7.090;2023-05-12T02:03:33;100448.91;;;13.35;91.85
12360;BME280;6244;51.460;7.090;2023-05-12T02:08:31;100457.38;;;13.40;91.69
12360;BME280;6244;51.460;7.090;2023-05-12T02:13:27;100459.59;;;13.46;91.76
12360;BME280;6244;51.460;7.090;2023-05-12T02:18:24;100458.31;;;13.51;91.70
12360;BME280;6244;51.460;7.090;2023-05-12T02:23:20;100467.72;;;13.43;91.44
12360;BME280;6244;51.460;7.090;2023-05-12T02:28:19;100471.28;;;13.42;91.38
12360;BME280;6244;51.460;7.090;2023-05-12T02:33:16;100463.81;;;13.48;91.48
12360;BME280;6244;51.460;7.090;2023-05-12T02:38:13;100471.44;;;13.53;91.37
12360;BME280;6244;51.460;7.090;2023-05-12T02:43:09;100476.28;;;13.59;91.31
12360;BME280;6244;51.460;7.090;2023-05-12T02:48:07;100472.06;;;13.57;91.30
12360;BME280;6244;51.460;7.090;2023-05-12T02:53:04;100479.47;;;13.37;90.58
12360;BME280;6244;51.460;7.090;2023-05-12T02:58:01;100482.22;;;13.36;91.04
12360;BME280;6244;51.460;7.090;2023-05-12T03:02:57;100468.16;;;13.22;90.87
12360;BME280;6244;51.460;7.090;2023-05-12T03:07:55;100466.09;;;13.28;90.68
12360;BME280;6244;51.460;7.090;2023-05-12T03:12:52;100479.25;;;13.28;90.56
12360;BME280;6244;51.460;7.090;2023-05-12T03:17:48;100479.91;;;13.17;90.34
12360;BME280;6244;51.460;7.090;2023-05-12T03:22:45;100486.91;;;13.04;90.12
12360;BME280;6244;51.460;7.090;2023-05-12T03:27:43;100485.16;;;12.90;90.48
12360;BME280;6244;51.460;7.090;2023-05-12T03:32:39;100483.38;;;12.90;90.53
12360;BME280;6244;51.460;7.090;2023-05-12T03:37:36;100487.97;;;12.87;90.24
12360;BME280;6244;51.460;7.090;2023-05-12T03:42:33;100486.31;;;12.72;90.42
12360;BME280;6244;51.460;7.090;2023-05-12T03:47:31;100492.78;;;12.80;90.48
12360;BME280;6244;51.460;7.090;2023-05-12T03:52:28;100493.75;;;12.79;90.43
12360;BME280;6244;51.460;7.090;2023-05-12T03:57:25;100483.31;;;12.78;90.52
12360;BME280;6244;51.460;7.090;2023-05-12T04:02:21;100499.19;;;12.62;90.66
12360;BME280;6244;51.460;7.090;2023-05-12T04:07:19;100501.06;;;12.74;90.88
12360;BME280;6244;51.460;7.090;2023-05-12T04:12:16;100503.13;;;12.83;90.65
12360;BME280;6244;51.460;7.090;2023-05-12T04:17:12;100510.34;;;12.94;90.55
12360;BME280;6244;51.460;7.090;2023-05-12T04:22:09;100507.00;;;12.78;90.41
12360;BME280;6244;51.460;7.090;2023-05-12T04:27:06;100516.28;;;12.83;90.75
12360;BME280;6244;51.460;7.090;2023-05-12T04:32:04;100522.72;;;12.79;90.52
12360;BME280;6244;51.460;7.090;2023-05-12T04:37:00;100531.44;;;12.80;91.03
12360;BME280;6244;51.460;7.090;2023-05-12T04:41:58;100539.16;;;12.83;91.01
12360;BME280;6244;51.460;7.090;2023-05-12T04:46:56;100545.72;;;12.76;91.01
12360;BME280;6244;51.460;7.090;2023-05-12T04:51:53;100555.06;;;12.81;90.72
12360;BME280;6244;51.460;7.090;2023-05-12T04:56:49;100561.06;;;12.83;90.40
12360;BME280;6244;51.460;7.090;2023-05-12T05:01:46;100566.97;;;12.87;90.36
12360;BME280;6244;51.460;7.090;2023-05-12T05:06:44;100579.09;;;12.89;90.25
12360;BME280;6244;51.460;7.090;2023-05-12T05:11:40;100587.59;;;12.80;90.65
12360;BME280;6244;51.460;7.090;2023-05-12T05:16:37;100597.53;;;12.89;90.49
12360;BME280;6244;51.460;7.090;2023-05-12T05:21:33;100608.94;;;13.04;90.38
12360;BME280;6244;51.460;7.090;2023-05-12T05:26:31;100618.53;;;13.05;90.19
12360;BME280;6244;51.460;7.090;2023-05-12T05:31:28;100622.38;;;13.00;90.28
12360;BME280;6244;51.460;7.090;2023-05-12T05:36:25;100630.84;;;13.05;90.17
12360;BME280;6244;51.460;7.090;2023-05-12T05:41:21;100635.19;;;13.06;90.21
12360;BME280;6244;51.460;7.090;2023-05-12T05:46:19;100637.28;;;13.29;90.28
12360;BME280;6244;51.460;7.090;2023-05-12T05:51:18;100638.91;;;13.02;89.89
12360;BME280;6244;51.460;7.090;2023-05-12T05:56:15;100642.69;;;12.98;90.40
12360;BME280;6244;51.460;7.090;2023-05-12T06:01:12;100645.06;;;13.02;90.64
12360;BME280;6244;51.460;7.090;2023-05-12T06:06:09;100646.69;;;13.19;90.80
12360;BME280;6244;51.460;7.090;2023-05-12T06:11:06;100655.53;;;13.32;90.59
12360;BME280;6244;51.460;7.090;2023-05-12T06:16:03;100659.91;;;13.46;90.40
12360;BME280;6244;51.460;7.090;2023-05-12T06:20:59;100667.34;;;13.39;89.52
12360;BME280;6244;51.460;7.090;2023-05-12T06:25:57;100668.13;;;13.41;89.67
12360;BME280;6244;51.460;7.090;2023-05-12T06:30:54;100679.25;;;13.32;89.53
12360;BME280;6244;51.460;7.090;2023-05-12T06:35:51;100685.06;;;13.23;89.50
12360;BME280;6244;51.460;7.090;2023-05-12T06:40:47;100683.19;;;13.25;89.96
12360;BME280;6244;51.460;7.090;2023-05-12T06:45:45;100685.38;;;13.18;89.83
12360;BME280;6244;51.460;7.090;2023-05-12T06:50:42;100695.69;;;13.36;90.13
12360;BME280;6244;51.460;7.090;2023-05-12T06:55:38;100702.41;;;13.41;89.25
12360;BME280;6244;51.460;7.090;2023-05-12T07:00:37;100706.34;;;13.34;89.16
12360;BME280;6244;51.460;7.090;2023-05-12T07:05:35;100703.72;;;13.34;89.40
12360;BME280;6244;51.460;7.090;2023-05-12T07:10:31;100711.16;;;13.42;88.44
12360;BME280;6244;51.460;7.090;2023-05-12T07:15:29;100709.72;;;13.36;88.09
12360;BME280;6244;51.460;7.090;2023-05-12T07:20:25;100725.25;;;13.27;88.76
12360;BME280;6244;51.460;7.090;2023-05-12T07:25:25;100724.97;;;13.31;88.60
12360;BME280;6244;51.460;7.090;2023-05-12T07:30:22;100739.22;;;13.13;89.21
12360;BME280;6244;51.460;7.090;2023-05-12T07:35:18;100738.72;;;13.22;88.36
12360;BME280;6244;51.460;7.090;2023-05-12T07:40:15;100744.63;;;13.26;88.30
12360;BME280;6244;51.460;7.090;2023-05-12T07:45:13;100745.81;;;13.06;88.85
12360;BME280;6244;51.460;7.090;2023-05-12T07:50:17;100747.88;;;13.01;89.49
12360;BME280;6244;51.460;7.090;2023-05-12T07:55:13;100746.13;;;13.15;89.47
12360;BME280;6244;51.460;7.090;2023-05-12T08:00:11;100751.16;;;13.34;89.07
12360;BME280;6244;51.460;7.090;2023-05-12T08:05:10;100752.75;;;13.51;89.14
12360;BME280;6244;51.460;7.090;2023-05-12T08:10:06;100757.53;;;13.59;88.23
12360;BME280;6244;51.460;7.090;2023-05-12T08:15:05;100757.63;;;13.71;87.91
12360;BME280;6244;51.460;7.090;2023-05-12T08:20:02;100758.78;;;13.67;88.41
12360;BME280;6244;51.460;7.090;2023-05-12T08:25:03;100762.16;;;13.69;88.55
12360;BME280;6244;51.460;7.090;2023-05-12T08:30:00;100768.47;;;13.67;88.10
12360;BME280;6244;51.460;7.090;2023-05-12T08:34:56;100768.91;;;13.88;89.40
12360;BME280;6244;51.460;7.090;2023-05-12T08:39:53;100767.25;;;14.14;88.47
12360;BME280;6244;51.460;7.090;2023-05-12T08:44:52;100773.09;;;14.19;88.65
12360;BME280;6244;51.460;7.090;2023-05-12T08:49:57;100775.50;;;14.36;89.12
12360;BME280;6244;51.460;7.090;2023-05-12T08:54:54;100779.22;;;14.19;86.77
12360;BME280;6244;51.460;7.090;2023-05-12T08:59:54;100775.47;;;14.09;86.94
12360;BME280;6244;51.460;7.090;2023-05-12T09:04:51;100776.44;;;14.35;86.09
12360;BME280;6244;51.460;7.090;2023-05-12T09:09:53;100774.38;;;14.40;80.72
12360;BME280;6244;51.460;7.090;2023-05-12T09:15:03;100786.97;;;14.76;78.23
12360;BME280;6244;51.460;7.090;2023-05-12T09:20:02;100793.19;;;15.40;76.53
12360;BME280;6244;51.460;7.090;2023-05-12T09:24:59;100784.06;;;15.57;74.13
12360;BME280;6244;51.460;7.090;2023-05-12T09:29:56;100793.81;;;15.56;74.02
12360;BME280;6244;51.460;7.090;2023-05-12T09:34:54;100794.03;;;15.79;74.38
12360;BME280;6244;51.460;7.090;2023-05-12T09:39:58;100796.81;;;15.65;72.81
12360;BME280;6244;51.460;7.090;2023-05-12T09:44:57;100798.72;;;15.75;72.42
12360;BME280;6244;51.460;7.090;2023-05-12T09:49:55;100800.69;;;15.84;71.79
12360;BME280;6244;51.460;7.090;2023-05-12T09:54:53;100807.34;;;15.90;71.13
12360;BME280;6244;51.460;7.090;2023-05-12T09:59:50;100800.66;;;15.97;71.11
12360;BME280;6244;51.460;7.090;2023-05-12T10:04:49;100806.91;;;16.33;69.82
12360;BME280;6244;51.460;7.090;2023-05-12T10:09:49;100809.88;;;16.65;68.67
12360;BME280;6244;51.460;7.090;2023-05-12T10:14:47;100803.84;;;16.87;67.97
12360;BME280;6244;51.460;7.090;2023-05-12T10:19:46;100804.91;;;16.84;66.80
12360;BME280;6244;51.460;7.090;2023-05-12T10:24:43;100811.41;;;16.80;67.77
12360;BME280;6244;51.460;7.090;2023-05-12T10:29:42;100801.75;;;16.55;67.16
12360;BME280;6244;51.460;7.090;2023-05-12T10:34:40;100812.97;;;16.59;67.17
12360;BME280;6244;51.460;7.090;2023-05-12T10:39:45;100807.59;;;16.48;68.45
12360;BME280;6244;51.460;7.090;2023-05-12T10:44:49;100805.53;;;16.40;69.59
12360;BME280;6244;51.460;7.090;2023-05-12T10:49:46;100806.69;;;16.36;68.91
12360;BME280;6244;51.460;7.090;2023-05-12T10:54:43;100807.66;;;16.35;69.20
12360;BME280;6244;51.460;7.090;2023-05-12T10:59:48;100807.81;;;16.21;69.37
12360;BME280;6244;51.460;7.090;2023-05-12T11:04:46;100803.16;;;16.11;69.05
12360;BME280;6244;51.460;7.090;2023-05-12T11:09:45;100803.00;;;16.38;70.32
12360;BME280;6244;51.460;7.090;2023-05-12T11:14:43;100805.34;;;16.54;69.69
12360;BME280;6244;51.460;7.090;2023-05-12T11:19:44;100804.44;;;16.66;69.48
12360;BME280;6244;51.460;7.090;2023-05-12T11:24:41;100804.16;;;17.06;67.35
12360;BME280;6244;51.460;7.090;2023-05-12T11:29:37;100792.53;;;17.98;67.42
12360;BME280;6244;51.460;7.090;2023-05-12T11:34:35;100795.63;;;18.80;63.45
12360;BME280;6244;51.460;7.090;2023-05-12T11:39:35;100790.50;;;19.51;61.02
12360;BME280;6244;51.460;7.090;2023-05-12T11:44:31;100800.03;;;19.32;60.69
12360;BME280;6244;51.460;7.090;2023-05-12T11:49:29;100794.81;;;18.68;60.98
12360;BME280;6244;51.460;7.090;2023-05-12T11:54:27;100810.75;;;18.25;64.07
12360;BME280;6244;51.460;7.090;2023-05-12T11:59:27;100804.38;;;18.05;62.05
12360;BME280;6244;51.460;7.090;2023-05-12T12:04:31;100809.44;;;17.97;63.03
12360;BME280;6244;51.460;7.090;2023-05-12T12:09:32;100805.09;;;17.85;63.37
12360;BME280;6244;51.460;7.090;2023-05-12T12:14:31;100819.34;;;17.84;62.40
12360;BME280;6244;51.460;7.090;2023-05-12T12:19:27;100817.31;;;17.76;63.97
12360;BME280;6244;51.460;7.090;2023-05-12T12:24:24;100815.72;;;17.85;62.87
12360;BME280;6244;51.460;7.090;2023-05-12T12:29:20;100815.00;;;17.72;63.18
12360;BME280;6244;51.460;7.090;2023-05-12T12:34:19;100820.81;;;17.77;63.62
12360;BME280;6244;51.460;7.090;2023-05-12T12:39:15;100818.38;;;17.85;63.69
12360;BME280;6244;51.460;7.090;2023-05-12T12:44:12;100809.44;;;18.19;62.82
12360;BME280;6244;51.460;7.090;2023-05-12T12:49:09;100809.06;;;18.24;62.80
12360;BME280;6244;51.460;7.090;2023-05-12T12:54:06;100817.66;;;18.05;63.78
12360;BME280;6244;51.460;7.090;2023-05-12T12:59:03;100813.81;;;17.87;64.90
12360;BME280;6244;51.460;7.090;2023-05-12T13:04:00;100813.81;;;17.76;63.95
12360;BME280;6244;51.460;7.090;2023-05-12T13:08:57;100802.81;;;18.03;63.96
12360;BME280;6244;51.460;7.090;2023-05-12T13:13:55;100794.31;;;18.31;62.83
12360;BME280;6244;51.460;7.090;2023-05-12T13:18:52;100793.00;;;18.69;61.94
12360;BME280;6244;51.460;7.090;2023-05-12T13:23:48;100787.84;;;19.09;60.98
12360;BME280;6244;51.460;7.090;2023-05-12T13:28:45;100789.03;;;19.16;61.70
12360;BME280;6244;51.460;7.090;2023-05-12T13:33:42;100780.34;;;19.14;62.41
12360;BME280;6244;51.460;7.090;2023-05-12T13:38:39;100778.84;;;19.21;60.86
12360;BME280;6244;51.460;7.090;2023-05-12T13:43:35;100769.31;;;19.19;61.30
12360;BME280;6244;51.460;7.090;2023-05-12T13:48:32;100773.97;;;19.05;59.40
12360;BME280;6244;51.460;7.090;2023-05-12T13:53:30;100769.94;;;18.58;60.95
12360;BME280;6244;51.460;7.090;2023-05-12T13:58:27;100769.94;;;18.26;61.03
12360;BME280;6244;51.460;7.090;2023-05-12T14:03:23;100760.56;;;18.11;62.24
12360;BME280;6244;51.460;7.090;2023-05-12T14:08:20;100772.75;;;18.13;62.09
12360;BME280;6244;51.460;7.090;2023-05-12T14:13:18;100779.88;;;18.13;60.82
12360;BME280;6244;51.460;7.090;2023-05-12T14:18:15;100776.50;;;18.11;57.83
12360;BME280;6244;51.460;7.090;2023-05-12T14:23:12;100779.94;;;18.23;58.47
12360;BME280;6244;51.460;7.090;2023-05-12T14:28:08;100778.72;;;18.38;58.75
12360;BME280;6244;51.460;7.090;2023-05-12T14:33:06;100760.03;;;18.60;59.36
12360;BME280;6244;51.460;7.090;2023-05-12T14:38:05;100764.19;;;18.53;58.60
12360;BME280;6244;51.460;7.090;2023-05-12T14:43:02;100768.41;;;18.88;59.90
12360;BME280;6244;51.460;7.090;2023-05-12T14:47:58;100774.41;;;19.31;57.12
12360;BME280;6244;51.460;7.090;2023-05-12T14:52:56;100788.88;;;18.97;56.58
12360;BME280;6244;51.460;7.090;2023-05-12T14:57:53;100789.03;;;18.63;57.43
12360;BME280;6244;51.460;7.090;2023-05-12T15:02:49;100795.69;;;18.14;59.04
12360;BME280;6244;51.460;7.090;2023-05-12T15:07:46;100800.78;;;17.84;60.22
12360;BME280;6244;51.460;7.090;2023-05-12T15:12:43;100818.75;;;17.92;60.61
12360;BME280;6244;51.460;7.090;2023-05-12T15:17:40;100839.28;;;17.78;61.74
12360;BME280;6244;51.460;7.090;2023-05-12T15:22:37;100859.28;;;17.36;54.08
12360;BME280;6244;51.460;7.090;2023-05-12T15:27:33;100853.84;;;16.31;62.91
12360;BME280;6244;51.460;7.090;2023-05-12T15:32:31;100838.81;;;14.64;74.54
12360;BME280;6244;51.460;7.090;2023-05-12T15:37:28;100833.97;;;14.44;80.03
12360;BME280;6244;51.460;7.090;2023-05-12T15:42:24;100819.13;;;14.15;79.34
12360;BME280;6244;51.460;7.090;2023-05-12T15:47:21;100823.72;;;14.11;82.36
12360;BME280;6244;51.460;7.090;2023-05-12T15:52:19;100817.00;;;14.20;84.61
12360;BME280;6244;51.460;7.090;2023-05-12T15:57:16;100817.72;;;14.77;85.57
12360;BME280;6244;51.460;7.090;2023-05-12T16:02:13;100818.13;;;15.36;82.79
12360;BME280;6244;51.460;7.090;2023-05-12T16:07:09;100818.91;;;15.76;80.02
12360;BME280;6244;51.460;7.090;2023-05-12T16:12:07;100825.56;;;15.56;80.49
12360;BME280;6244;51.460;7.090;2023-05-12T16:17:05;100814.59;;;16.12;78.08
12360;BME280;6244;51.460;7.090;2023-05-12T16:22:02;100817.28;;;16.36;78.80
12360;BME280;6244;51.460;7.090;2023-05-12T16:26:59;100820.84;;;16.48;78.88
12360;BME280;6244;51.460;7.090;2023-05-12T16:31:57;100823.50;;;16.48;79.85
12360;BME280;6244;51.460;7.090;2023-05-12T16:36:53;100817.69;;;16.42;82.69
12360;BME280;6244;51.460;7.090;2023-05-12T16:41:50;100821.97;;;16.56;79.47
12360;BME280;6244;51.460;7.090;2023-05-12T16:46:46;100819.56;;;16.53;79.52
12360;BME280;6244;51.460;7.090;2023-05-12T16:51:44;100820.78;;;16.60;76.89
12360;BME280;6244;51.460;7.090;2023-05-12T16:56:41;100822.94;;;16.55;76.27
12360;BME280;6244;51.460;7.090;2023-05-12T17:01:37;100831.22;;;16.51;74.50
12360;BME280;6244;51.460;7.090;2023-05-12T17:06:34;100831.06;;;16.41;73.99
12360;BME280;6244;51.460;7.090;2023-05-12T17:11:32;100837.69;;;16.47;74.56
12360;BME280;6244;51.460;7.090;2023-05-12T17:16:28;100835.34;;;16.55;72.87
12360;BME280;6244;51.460;7.090;2023-05-12T17:21:25;100836.31;;;16.54;73.63
12360;BME280;6244;51.460;7.090;2023-05-12T17:26:22;100841.25;;;16.58;72.04
12360;BME280;6244;51.460;7.090;2023-05-12T17:31:23;100839.22;;;16.62;72.96
12360;BME280;6244;51.460;7.090;2023-05-12T17:36:19;100840.50;;;16.69;72.71
12360;BME280;6244;51.460;7.090;2023-05-12T17:41:16;100848.22;;;16.72;72.35
12360;BME280;6244;51.460;7.090;2023-05-12T17:46:12;100848.56;;;16.67;72.18
12360;BME280;6244;51.460;7.090;2023-05-12T17:51:10;100856.66;;;16.53;72.59
12360;BME280;6244;51.460;7.090;2023-05-12T17:56:07;100845.56;;;16.35;73.14
12360;BME280;6244;51.460;7.090;2023-05-12T18:01:04;100856.19;;;16.23;73.47
12360;BME280;6244;51.460;7.090;2023-05-12T18:06:01;100858.66;;;16.13;74.16
12360;BME280;6244;51.460;7.090;2023-05-12T18:11:00;100866.47;;;16.27;73.99
12360;BME280;6244;51.460;7.090;2023-05-12T18:15:58;100861.41;;;16.48;73.40
12360;BME280;6244;51.460;7.090;2023-05-12T18:20:54;100872.72;;;16.63;72.75
12360;BME280;6244;51.460;7.090;2023-05-12T18:25:51;100867.13;;;16.67;72.66
12360;BME280;6244;51.460;7.090;2023-05-12T18:30:49;100872.81;;;16.61;72.48
12360;BME280;6244;51.460;7.090;2023-05-12T18:35:45;100873.38;;;16.54;73.10
12360;BME280;6244;51.460;7.090;2023-05-12T18:40:42;100867.06;;;16.43;73.78
12360;BME280;6244;51.460;7.090;2023-05-12T18:45:39;100884.44;;;16.35;74.44
12360;BME280;6244;51.460;7.090;2023-05-12T18:50:37;100883.00;;;16.18;74.97
12360;BME280;6244;51.460;7.090;2023-05-12T18:55:34;100884.28;;;16.00;75.52
12360;BME280;6244;51.460;7.090;2023-05-12T19:00:30;100877.97;;;15.90;75.73
12360;BME280;6244;51.460;7.090;2023-05-12T19:05:29;100894.13;;;15.98;76.41
12360;BME280;6244;51.460;7.090;2023-05-12T19:10:27;100908.97;;;16.13;75.83
12360;BME280;6244;51.460;7.090;2023-05-12T19:15:24;100901.31;;;16.21;75.39
12360;BME280;6244;51.460;7.090;2023-05-12T19:20:20;100905.38;;;16.14;75.26
12360;BME280;6244;51.460;7.090;2023-05-12T19:25:17;100917.44;;;16.18;75.07
12360;BME280;6244;51.460;7.090;2023-05-12T19:30:15;100914.34;;;15.99;75.18
12360;BME280;6244;51.460;7.090;2023-05-12T19:35:13;100927.19;;;15.79;75.26
12360;BME280;6244;51.460;7.090;2023-05-12T19:40:10;100929.25;;;15.62;75.44
12360;BME280;6244;51.460;7.090;2023-05-12T19:45:08;100926.66;;;15.47;75.52
12360;BME280;6244;51.460;7.090;2023-05-12T19:50:07;100933.88;;;15.58;75.49
12360;BME280;6244;51.460;7.090;2023-05-12T19:55:05;100938.84;;;15.50;75.63
12360;BME280;6244;51.460;7.090;2023-05-12T20:00:03;100932.53;;;15.52;75.51
12360;BME280;6244;51.460;7.090;2023-05-12T20:05:00;100937.25;;;15.47;75.53
12360;BME280;6244;51.460;7.090;2023-05-12T20:09:58;100942.16;;;15.53;75.64
12360;BME280;6244;51.460;7.090;2023-05-12T20:14:55;100948.56;;;15.49;75.81
12360;BME280;6244;51.460;7.090;2023-05-12T20:19:52;100943.28;;;15.49;75.22
12360;BME280;6244;51.460;7.090;2023-05-12T20:24:48;100956.00;;;15.57;74.89
12360;BME280;6244;51.460;7.090;2023-05-12T20:29:46;100966.16;;;15.50;74.92
12360;BME280;6244;51.460;7.090;2023-05-12T20:34:43;100965.22;;;15.51;74.93
12360;BME280;6244;51.460;7.090;2023-05-12T20:39:40;100965.72;;;15.44;75.18
12360;BME280;6244;51.460;7.090;2023-05-12T20:44:37;100967.91;;;15.37;75.18
12360;BME280;6244;51.460;7.090;2023-05-12T20:49:34;100970.22;;;15.29;74.78
12360;BME280;6244;51.460;7.090;2023-05-12T20:54:31;100976.47;;;15.28;74.76
12360;BME280;6244;51.460;7.090;2023-05-12T20:59:28;100974.41;;;15.19;74.40
12360;BME280;6244;51.460;7.090;2023-05-12T21:04:24;100974.25;;;15.08;74.66
12360;BME280;6244;51.460;7.090;2023-05-12T21:09:22;100977.09;;;15.05;74.63
12360;BME280;6244;51.460;7.090;2023-05-12T21:14:19;100976.09;;;14.93;74.54
12360;BME280;6244;51.460;7.090;2023-05-12T21:19:16;100976.72;;;14.96;74.24
12360;BME280;6244;51.460;7.090;2023-05-12T21:24:13;100974.03;;;14.84;74.85
12360;BME280;6244;51.460;7.090;2023-05-12T21:29:11;100977.91;;;14.78;74.37
12360;BME280;6244;51.460;7.090;2023-05-12T21:34:08;100992.81;;;14.79;74.42
12360;BME280;6244;51.460;7.090;2023-05-12T21:39:05;101000.69;;;14.66;74.18
12360;BME280;6244;51.460;7.090;2023-05-12T21:44:01;101003.53;;;14.05;78.08
12360;BME280;6244;51.460;7.090;2023-05-12T21:48:59;101013.06;;;14.07;78.37
12360;BME280;6244;51.460;7.090;2023-05-12T21:53:56;101013.75;;;13.81;79.45
12360;BME280;6244;51.460;7.090;2023-05-12T21:58:53;101013.13;;;13.92;80.23
12360;BME280;6244;51.460;7.090;2023-05-12T22:03:50;101008.94;;;14.18;78.49
12360;BME280;6244;51.460;7.090;2023-05-12T22:08:49;101004.41;;;14.20;77.17
12360;BME280;6244;51.460;7.090;2023-05-12T22:13:45;101011.09;;;14.25;76.72
12360;BME280;6244;51.460;7.090;2023-05-12T22:18:42;101016.66;;;14.35;75.78
12360;BME280;6244;51.460;7.090;2023-05-12T22:23:38;101018.16;;;14.25;75.33
12360;BME280;6244;51.460;7.090;2023-05-12T22:28:37;101023.66;;;13.62;78.85
12360;BME280;6244;51.460;7.090;2023-05-12T22:33:34;101027.06;;;13.94;78.45
12360;BME280;6244;51.460;7.090;2023-05-12T22:38:30;101026.38;;;14.20;76.52
12360;BME280;6244;51.460;7.090;2023-05-12T22:43:27;101022.97;;;14.18;75.95
12360;BME280;6244;51.460;7.090;2023-05-12T22:48:25;101022.13;;;14.18;75.34
12360;BME280;6244;51.460;7.090;2023-05-12T22:53:21;101027.41;;;14.18;74.75
12360;BME280;6244;51.460;7.090;2023-05-12T22:58:18;101021.63;;;14.11;74.49
12360;BME280;6244;51.460;7.090;2023-05-12T23:03:14;101027.00;;;14.09;74.04
12360;BME280;6244;51.460;7.090;2023-05-12T23:08:12;101019.38;;;14.05;73.88
12360;BME280;6244;51.460;7.090;2023-05-12T23:13:09;101020.84;;;13.95;73.86
12360;BME280;6244;51.460;7.090;2023-05-12T23:18:06;101011.91;;;13.97;73.78
12360;BME280;6244;51.460;7.090;2023-05-12T23:23:02;101013.59;;;13.98;73.57
12360;BME280;6244;51.460;7.090;2023-05-12T23:28:00;101012.00;;;13.96;73.51
12360;BME280;6244;51.460;7.090;2023-05-12T23:32:56;101015.88;;;13.90;74.33
12360;BME280;6244;51.460;7.090;2023-05-12T23:37:53;101011.25;;;13.94;73.58
12360;BME280;6244;51.460;7.090;2023-05-12T23:42:49;101011.44;;;13.91;73.38
12360;BME280;6244;51.460;7.090;2023-05-12T23:47:47;101008.47;;;13.81;73.42
12360;BME280;6244;51.460;7.090;2023-05-12T23:52:44;101004.06;;;13.81;73.09
12360;BME280;6244;51.460;7.090;2023-05-12T23:57:40;100999.06;;;13.77;72.82
